createdAt,value
2019-04-11T00:00:57.712Z,83.30
2019-04-11T00:03:25.028Z,83.90
2019-04-11T00:05:51.592Z,84.10
2019-04-11T00:08:18.139Z,83.40
2019-04-11T00:10:45.049Z,83.60
2019-04-11T00:13:19.770Z,83.50
2019-04-11T00:15:40.450Z,83.90
2019-04-11T00:18:06.809Z,84.00
2019-04-11T00:20:33.867Z,83.50
2019-04-11T00:23:00.238Z,83.50
2019-04-11T00:25:27.478Z,83.30
2019-04-11T00:27:54.146Z,83.60
2019-04-11T00:30:20.814Z,83.80
2019-04-11T00:32:47.084Z,84.00
2019-04-11T00:35:13.455Z,83.70
2019-04-11T00:37:39.698Z,83.60
2019-04-11T00:40:06.577Z,83.80
2019-04-11T00:42:32.882Z,83.70
2019-04-11T00:44:59.199Z,83.50
2019-04-11T00:47:25.391Z,83.80
2019-04-11T00:49:51.630Z,84.00
2019-04-11T00:52:17.880Z,83.90
2019-04-11T00:54:44.117Z,83.80
2019-04-11T00:57:10.570Z,83.80
2019-04-11T00:59:37.011Z,83.70
2019-04-11T01:02:05.141Z,83.90
2019-04-11T01:04:31.518Z,84.00
2019-04-11T01:06:58.594Z,84.40
2019-04-11T01:09:24.874Z,84.50
2019-04-11T01:11:52.169Z,84.10
2019-04-11T01:14:18.494Z,83.80
2019-04-11T01:16:46.595Z,83.70
2019-04-11T01:19:12.863Z,83.90
2019-04-11T01:21:40.316Z,83.60
2019-04-11T01:24:07.187Z,83.50
2019-04-11T01:26:33.514Z,83.60
2019-04-11T01:29:00.921Z,84.00
2019-04-11T01:31:29.502Z,83.70
2019-04-11T01:33:56.086Z,83.90
2019-04-11T01:36:22.744Z,83.60
2019-04-11T01:38:50.936Z,83.60
2019-04-11T01:41:18.177Z,83.50
2019-04-11T01:43:53.421Z,83.40
2019-04-11T01:46:14.048Z,83.10
2019-04-11T01:48:45.906Z,84.00
2019-04-11T01:51:12.360Z,83.30
2019-04-11T01:53:40.561Z,83.40
2019-04-11T01:56:07.231Z,83.60
2019-04-11T01:58:33.621Z,82.90
2019-04-11T02:01:08.377Z,83.00
2019-04-11T02:03:51.833Z,82.20
2019-04-11T02:06:18.182Z,82.30
2019-04-11T02:08:44.435Z,82.50
2019-04-11T02:11:10.770Z,79.30
2019-04-11T02:13:37.008Z,79.00
2019-04-11T02:16:03.406Z,79.30
2019-04-11T02:18:29.746Z,79.00
2019-04-11T02:20:55.961Z,79.60
2019-04-11T02:23:26.999Z,80.70
2019-04-11T02:25:57.856Z,77.60
2019-04-11T02:28:24.433Z,77.00
2019-04-11T02:30:54.147Z,76.10
2019-04-11T02:33:21.809Z,76.10
2019-04-11T02:35:49.492Z,76.50
2019-04-11T02:38:16.503Z,77.00
2019-04-11T02:40:45.290Z,76.20
2019-04-11T02:43:13.308Z,75.80
2019-04-11T02:45:54.515Z,76.70
2019-04-11T02:48:11.483Z,75.90
2019-04-11T02:50:38.796Z,75.90
2019-04-11T02:53:07.226Z,76.60
2019-04-11T02:55:35.813Z,75.50
2019-04-11T02:58:03.978Z,75.40
2019-04-11T03:00:32.738Z,75.60
2019-04-11T03:02:59.880Z,75.70
2019-04-11T03:05:28.876Z,76.70
2019-04-11T03:07:57.978Z,76.60
2019-04-11T03:10:26.980Z,75.70
2019-04-11T03:12:54.600Z,75.70
2019-04-11T03:15:56.834Z,75.00
2019-04-11T03:18:12.332Z,74.90
2019-04-11T03:20:47.349Z,74.60
2019-04-11T03:23:10.143Z,74.40
2019-04-11T03:25:36.403Z,74.30
2019-04-11T03:28:03.201Z,75.00
2019-04-11T03:30:49.415Z,74.80
2019-04-11T03:33:57.865Z,74.80
2019-04-11T03:36:21.268Z,74.40
2019-04-11T03:38:19.480Z,73.90
2019-04-11T03:40:44.021Z,73.90
2019-04-11T03:43:06.232Z,74.30
2019-04-11T03:45:43.577Z,75.10
2019-04-11T03:48:06.166Z,74.40
2019-04-11T03:50:23.147Z,73.90
2019-04-11T03:52:47.067Z,74.10
2019-04-11T03:55:15.724Z,74.40
2019-04-11T03:57:43.104Z,72.90
2019-04-11T04:00:13.079Z,71.70
2019-04-11T04:02:41.161Z,71.40
2019-04-11T04:05:10.474Z,72.40
2019-04-11T04:07:38.121Z,71.50
2019-04-11T04:10:09.193Z,71.60
2019-04-11T04:12:35.721Z,71.30
2019-04-11T04:15:35.882Z,71.90
2019-04-11T04:18:10.774Z,70.90
2019-04-11T04:20:41.826Z,71.30
2019-04-11T04:23:12.405Z,71.80
2019-04-11T04:25:42.780Z,72.30
2019-04-11T04:28:10.109Z,71.20
2019-04-11T04:30:38.425Z,71.60
2019-04-11T04:33:05.088Z,72.20
2019-04-11T04:35:33.748Z,71.20
2019-04-11T04:38:03.049Z,71.20
2019-04-11T04:40:50.037Z,71.30
2019-04-11T04:43:01.279Z,72.00
2019-04-11T04:45:30.013Z,71.70
2019-04-11T04:48:04.550Z,72.20
2019-04-11T04:50:28.703Z,72.60
2019-04-11T04:52:56.512Z,72.20
2019-04-11T04:55:25.746Z,72.40
2019-04-11T04:57:53.306Z,71.20
2019-04-11T05:00:20.779Z,71.70
2019-04-11T05:02:48.338Z,73.00
2019-04-11T05:05:14.634Z,70.60
2019-04-11T05:07:44.074Z,70.80
2019-04-11T05:10:11.123Z,92.50
2019-04-11T05:12:38.811Z,83.20
2019-04-11T05:15:07.902Z,74.20
2019-04-11T05:17:34.631Z,71.70
2019-04-11T05:20:01.144Z,70.70
2019-04-11T05:22:27.416Z,70.50
2019-04-11T05:24:53.960Z,70.50
2019-04-11T05:27:22.916Z,71.30
2019-04-11T05:29:49.543Z,71.30
2019-04-11T05:32:15.766Z,71.00
2019-04-11T05:34:42.040Z,71.20
2019-04-11T05:37:09.022Z,71.60
2019-04-11T05:39:35.914Z,72.10
2019-04-11T05:42:03.162Z,70.40
2019-04-11T05:44:30.575Z,70.60
2019-04-11T05:47:00.450Z,71.00
2019-04-11T05:49:36.763Z,71.20
2019-04-11T05:52:06.116Z,72.60
2019-04-11T05:54:40.523Z,71.60
2019-04-11T05:57:05.491Z,71.60
2019-04-11T05:59:32.725Z,72.10
2019-04-11T06:02:10.964Z,72.20
2019-04-11T06:04:42.760Z,72.00
2019-04-11T06:07:11.919Z,72.50
2019-04-11T06:09:41.682Z,72.50
2019-04-11T06:12:09.885Z,71.70
2019-04-11T06:14:38.054Z,72.50
2019-04-11T06:17:07.292Z,71.90
2019-04-11T06:19:53.790Z,72.50
2019-04-11T06:22:21.291Z,72.80
2019-04-11T06:24:50.174Z,73.10
2019-04-11T06:27:18.462Z,72.90
2019-04-11T06:29:47.313Z,72.70
2019-04-11T06:32:21.673Z,72.60
2019-04-11T06:34:55.627Z,72.20
2019-04-11T06:37:36.153Z,72.10
2019-04-11T06:40:07.647Z,72.20
2019-04-11T06:42:35.777Z,72.40
2019-04-11T06:45:21.818Z,71.80
2019-04-11T06:47:50.020Z,71.70
2019-04-11T06:50:20.893Z,70.00
2019-04-11T06:52:47.186Z,71.10
2019-04-11T06:55:15.539Z,71.60
2019-04-11T06:57:43.688Z,71.60
2019-04-11T07:00:12.615Z,70.90
2019-04-11T07:02:41.096Z,70.70
2019-04-11T07:05:10.753Z,71.30
2019-04-11T07:07:39.392Z,69.70
2019-04-11T07:10:06.453Z,70.20
2019-04-11T07:12:38.597Z,70.60
2019-04-11T07:15:29.358Z,71.00
2019-04-11T07:18:14.190Z,70.30
2019-04-11T07:20:45.742Z,70.70
2019-04-11T07:23:32.971Z,70.40
2019-04-11T07:26:08.023Z,71.10
2019-04-11T07:28:41.984Z,70.60
2019-04-11T07:31:21.527Z,70.60
2019-04-11T07:34:06.540Z,71.70
2019-04-11T07:36:53.498Z,72.50
2019-04-11T07:39:24.827Z,71.70
2019-04-11T07:41:52.987Z,72.20
2019-04-11T07:44:30.983Z,72.60
2019-04-11T07:47:13.692Z,72.00
2019-04-11T07:49:37.146Z,71.10
2019-04-11T07:52:11.918Z,72.00
2019-04-11T07:54:39.000Z,72.60
2019-04-11T07:57:08.398Z,71.50
2019-04-11T07:59:53.395Z,71.90
2019-04-11T08:02:38.299Z,71.40
2019-04-11T08:05:13.602Z,72.40
2019-04-11T08:07:51.431Z,72.50
2019-04-11T08:10:35.191Z,72.60
2019-04-11T08:13:06.497Z,73.20
2019-04-11T08:15:48.073Z,72.90
2019-04-11T08:18:16.614Z,73.50
2019-04-11T08:21:01.748Z,72.60
2019-04-11T08:23:27.988Z,72.80
2019-04-11T08:26:02.082Z,73.70
2019-04-11T08:28:28.956Z,72.70
2019-04-11T08:31:03.556Z,72.60
2019-04-11T08:33:30.948Z,72.90
2019-04-11T08:36:15.842Z,72.90
2019-04-11T08:38:42.636Z,73.50
2019-04-11T08:41:29.009Z,73.70
2019-04-11T08:43:55.325Z,73.90
2019-04-11T08:46:35.678Z,73.90
2019-04-11T08:49:09.840Z,73.50
2019-04-11T08:51:36.243Z,73.80
2019-04-11T08:54:09.114Z,72.00
2019-04-11T08:56:37.389Z,72.20
2019-04-11T08:59:13.471Z,71.20
2019-04-11T09:01:40.310Z,70.90
2019-04-11T09:04:26.073Z,70.70
2019-04-11T09:06:54.704Z,70.60
2019-04-11T09:09:31.786Z,70.50
2019-04-11T09:12:00.483Z,70.80
2019-04-11T09:14:44.421Z,71.00
2019-04-11T09:17:12.830Z,70.70
2019-04-11T09:19:53.223Z,69.50
2019-04-11T09:22:33.384Z,68.10
2019-04-11T09:25:10.962Z,69.10
2019-04-11T09:27:44.934Z,69.70
2019-04-11T09:30:32.636Z,68.70
2019-04-11T09:33:00.977Z,69.10
2019-04-11T09:35:38.061Z,68.60
2019-04-11T09:38:06.446Z,68.40
2019-04-11T09:40:50.119Z,69.70
2019-04-11T09:43:28.221Z,69.20
2019-04-11T09:45:59.813Z,67.70
2019-04-11T09:48:37.818Z,68.10
2019-04-11T09:51:15.632Z,67.90
2019-04-11T09:53:56.249Z,68.70
2019-04-11T09:56:39.701Z,68.00
2019-04-11T09:59:08.713Z,67.50
2019-04-11T10:01:56.053Z,66.90
2019-04-11T10:04:23.943Z,65.60
2019-04-11T10:07:11.130Z,67.10
2019-04-11T10:09:56.867Z,67.70
2019-04-11T10:12:40.620Z,66.90
2019-04-11T10:15:09.352Z,65.70
2019-04-11T10:17:40.624Z,67.30
2019-04-11T10:20:10.615Z,66.60
2019-04-11T10:22:56.366Z,66.30
2019-04-11T10:25:25.376Z,67.30
2019-04-11T10:28:11.194Z,64.40
2019-04-11T10:30:56.237Z,64.90
2019-04-11T10:33:30.983Z,67.00
2019-04-11T10:36:15.952Z,66.20
2019-04-11T10:38:42.190Z,67.50
2019-04-11T10:41:10.440Z,65.10
2019-04-11T10:43:36.789Z,63.80
2019-04-11T10:46:21.619Z,64.40
2019-04-11T10:48:52.879Z,62.70
2019-04-11T10:51:38.196Z,62.70
2019-04-11T10:54:07.389Z,61.80
2019-04-11T10:56:35.967Z,62.20
2019-04-11T10:59:02.517Z,62.30
2019-04-11T11:01:48.404Z,62.10
2019-04-11T11:04:17.974Z,62.10
2019-04-11T11:06:46.598Z,62.00
2019-04-11T11:09:32.300Z,63.30
2019-04-11T11:12:03.345Z,61.50
2019-04-11T11:14:46.993Z,63.40
2019-04-11T11:17:28.883Z,63.60
2019-04-11T11:20:11.918Z,63.70
2019-04-11T11:22:48.640Z,63.70
2019-04-11T11:25:18.144Z,61.70
2019-04-11T11:27:47.968Z,62.20
2019-04-11T11:30:32.761Z,61.90
2019-04-11T11:33:00.074Z,63.10
2019-04-11T11:35:32.334Z,61.70
2019-04-11T11:37:57.807Z,61.90
2019-04-11T11:40:39.193Z,61.60
2019-04-11T11:43:08.676Z,61.90
2019-04-11T11:45:37.412Z,61.80
2019-04-11T11:48:11.625Z,63.60
2019-04-11T11:50:34.905Z,60.90
2019-04-11T11:53:19.485Z,60.70
2019-04-11T11:55:47.364Z,60.90
2019-04-11T11:58:42.359Z,62.10
2019-04-11T12:01:09.427Z,61.80
2019-04-11T12:03:40.314Z,61.00
2019-04-11T12:06:07.655Z,61.10
2019-04-11T12:08:54.061Z,62.00
2019-04-11T12:11:21.989Z,61.00
2019-04-11T12:14:07.629Z,60.10
2019-04-11T12:16:42.474Z,60.80
2019-04-11T12:19:29.033Z,59.90
2019-04-11T12:21:58.308Z,60.60
2019-04-11T12:24:38.687Z,61.20
2019-04-11T12:27:16.413Z,61.10
2019-04-11T12:29:49.271Z,59.80
2019-04-11T12:32:34.746Z,60.60
2019-04-11T12:35:04.097Z,61.20
2019-04-11T12:37:35.857Z,61.20
2019-04-11T12:40:09.561Z,62.00
2019-04-11T12:42:37.475Z,63.20
2019-04-11T12:45:14.182Z,62.20
2019-04-11T12:47:41.229Z,63.30
2019-04-11T12:50:10.663Z,62.80
2019-04-11T12:52:38.948Z,63.40
2019-04-11T12:55:08.264Z,64.40
2019-04-11T12:57:53.779Z,63.50
2019-04-11T13:00:33.660Z,63.90
2019-04-11T13:03:07.825Z,63.10
2019-04-11T13:05:44.703Z,64.30
2019-04-11T13:08:29.420Z,63.60
2019-04-11T13:10:55.659Z,63.40
2019-04-11T13:13:23.806Z,63.50
2019-04-11T13:15:55.068Z,63.80
2019-04-11T13:18:26.152Z,62.70
2019-04-11T13:21:10.930Z,63.60
2019-04-11T13:23:47.983Z,63.10
2019-04-11T13:26:32.655Z,61.90
2019-04-11T13:29:17.368Z,63.00
2019-04-11T13:31:54.425Z,62.00
2019-04-11T13:34:28.908Z,60.70
2019-04-11T13:37:14.107Z,62.30
2019-04-11T13:39:40.369Z,60.30
2019-04-11T13:42:11.145Z,60.30
2019-04-11T13:44:46.106Z,61.00
2019-04-11T13:47:14.265Z,60.30
2019-04-11T13:49:42.506Z,60.80
2019-04-11T13:52:16.411Z,60.30
2019-04-11T13:55:03.363Z,60.20
2019-04-11T13:57:40.620Z,61.80
2019-04-11T14:00:27.001Z,61.40
2019-04-11T14:03:07.256Z,60.30
2019-04-11T14:05:42.953Z,60.60
2019-04-11T14:08:11.181Z,60.30
2019-04-11T14:10:38.399Z,60.50
2019-04-11T14:13:06.535Z,60.40
2019-04-11T14:15:36.478Z,60.30
2019-04-11T14:18:04.924Z,59.70
2019-04-11T14:20:32.975Z,60.20
2019-04-11T14:23:04.509Z,60.30
2019-04-11T14:25:50.137Z,59.70
2019-04-11T14:28:21.072Z,59.80
2019-04-11T14:30:52.227Z,59.80
2019-04-11T14:33:17.352Z,59.90
2019-04-11T14:35:51.212Z,60.50
2019-04-11T14:38:19.379Z,60.80
2019-04-11T14:41:01.851Z,61.20
2019-04-11T14:43:27.155Z,60.70
2019-04-11T14:45:55.297Z,61.30
2019-04-11T14:48:42.034Z,60.50
2019-04-11T14:51:16.661Z,60.20
2019-04-11T14:53:47.185Z,61.40
2019-04-11T14:56:27.292Z,62.10
2019-04-11T14:59:13.496Z,61.00
2019-04-11T15:01:43.941Z,61.30
2019-04-11T15:04:13.534Z,61.30
2019-04-11T15:06:54.073Z,62.50
2019-04-11T15:09:38.837Z,64.20
2019-04-11T15:12:07.214Z,61.70
2019-04-11T15:14:41.034Z,62.50
2019-04-11T15:17:11.905Z,62.60
2019-04-11T15:19:40.048Z,62.50
2019-04-11T15:22:11.072Z,61.50
2019-04-11T15:24:39.223Z,62.20
2019-04-11T15:27:23.853Z,62.10
2019-04-11T15:29:50.143Z,61.10
2019-04-11T15:32:23.940Z,60.20
2019-04-11T15:34:52.815Z,60.60
2019-04-11T15:37:37.143Z,61.20
2019-04-11T15:40:07.677Z,61.30
2019-04-11T15:42:37.790Z,61.50
2019-04-11T15:45:06.603Z,62.20
2019-04-11T15:47:32.843Z,63.20
2019-04-11T15:50:17.708Z,61.70
2019-04-11T15:52:45.835Z,61.80
2019-04-11T15:55:14.577Z,61.70
2019-04-11T15:57:43.036Z,63.30
2019-04-11T16:00:16.081Z,62.20
2019-04-11T16:02:53.575Z,62.30
2019-04-11T16:05:34.664Z,63.10
2019-04-11T16:08:20.911Z,62.30
2019-04-11T16:11:05.729Z,62.70
2019-04-11T16:13:36.536Z,62.60
2019-04-11T16:16:11.882Z,63.00
2019-04-11T16:18:40.373Z,63.80
2019-04-11T16:21:24.268Z,63.10
2019-04-11T16:24:22.458Z,62.70
2019-04-11T16:26:50.479Z,63.00
2019-04-11T16:29:27.556Z,62.90
2019-04-11T16:31:55.761Z,63.50
2019-04-11T16:34:47.683Z,62.80
2019-04-11T16:37:04.303Z,63.00
2019-04-11T16:39:44.698Z,63.50
2019-04-11T16:42:11.072Z,62.90
2019-04-11T16:44:39.215Z,63.90
2019-04-11T16:47:25.689Z,64.00
2019-04-11T16:49:52.373Z,64.10
2019-04-11T16:52:18.771Z,65.20
2019-04-11T16:55:59.693Z,66.30
2019-04-11T16:58:26.033Z,64.30
2019-04-11T17:00:53.235Z,64.60
2019-04-11T17:03:19.683Z,64.00
2019-04-11T17:05:50.476Z,65.00
2019-04-11T17:08:18.741Z,65.90
2019-04-11T17:11:04.906Z,64.50
2019-04-11T17:13:32.574Z,64.80
2019-04-11T17:16:00.611Z,65.00
2019-04-11T17:18:26.963Z,65.20
2019-04-11T17:20:53.199Z,64.30
2019-04-11T17:23:19.429Z,65.30
2019-04-11T17:25:48.116Z,64.50
2019-04-11T17:28:14.001Z,64.80
2019-04-11T17:30:40.240Z,65.40
2019-04-11T17:33:06.534Z,65.00
2019-04-11T17:35:32.889Z,65.00
2019-04-11T17:38:01.106Z,64.30
2019-04-11T17:40:27.272Z,64.20
2019-04-11T17:42:53.496Z,64.70
2019-04-11T17:45:19.745Z,64.90
2019-04-11T17:47:45.979Z,65.50
2019-04-11T17:50:12.807Z,65.30
2019-04-11T17:52:39.058Z,65.00
2019-04-11T17:55:05.508Z,63.50
2019-04-11T17:57:31.734Z,63.50
2019-04-11T17:59:59.219Z,63.80
2019-04-11T18:02:26.001Z,64.70
2019-04-11T18:04:52.260Z,64.10
2019-04-11T18:07:18.471Z,63.50
2019-04-11T18:09:44.847Z,63.40
2019-04-11T18:12:11.279Z,63.40
2019-04-11T18:14:37.514Z,63.40
2019-04-11T18:17:04.781Z,64.60
2019-04-11T18:19:31.170Z,64.30
2019-04-11T18:22:07.462Z,65.10
2019-04-11T18:24:27.248Z,64.90
2019-04-11T18:26:54.051Z,64.90
2019-04-11T18:29:22.936Z,65.20
2019-04-11T18:31:49.349Z,64.20
2019-04-11T18:34:15.719Z,64.80
2019-04-11T18:36:42.409Z,64.50
2019-04-11T18:39:09.648Z,63.30
2019-04-11T18:41:35.936Z,63.20
2019-04-11T18:44:02.591Z,62.60
2019-04-11T18:46:29.248Z,63.00
2019-04-11T18:48:55.686Z,62.40
2019-04-11T18:51:23.205Z,61.90
2019-04-11T18:53:50.561Z,61.90
2019-04-11T18:56:17.690Z,62.00
2019-04-11T18:58:44.554Z,61.40
2019-04-11T19:01:11.894Z,61.50
2019-04-11T19:03:41.156Z,61.20
2019-04-11T19:06:07.483Z,62.00
2019-04-11T19:08:34.503Z,60.90
2019-04-11T19:11:01.758Z,60.70
2019-04-11T19:13:28.990Z,61.20
2019-04-11T19:15:56.154Z,60.50
2019-04-11T19:18:23.552Z,61.00
2019-04-11T19:20:50.942Z,60.40
2019-04-11T19:23:18.766Z,60.60
2019-04-11T19:25:46.368Z,60.20
2019-04-11T19:28:13.876Z,60.80
2019-04-11T19:30:42.502Z,60.40
2019-04-11T19:33:10.411Z,59.90
2019-04-11T19:35:41.370Z,60.00
2019-04-11T19:38:12.014Z,59.60
2019-04-11T19:40:39.470Z,59.40
2019-04-11T19:43:07.277Z,59.20
2019-04-11T19:45:35.282Z,59.20
2019-04-11T19:48:02.748Z,59.40
2019-04-11T19:50:32.194Z,60.30
2019-04-11T19:53:02.644Z,59.60
2019-04-11T19:55:46.571Z,59.00
2019-04-11T19:58:15.002Z,59.60
2019-04-11T20:00:42.851Z,58.70
2019-04-11T20:03:10.708Z,59.00
2019-04-11T20:05:38.358Z,58.50
2019-04-11T20:08:06.307Z,59.40
2019-04-11T20:10:33.931Z,58.90
2019-04-11T20:13:02.012Z,59.80
2019-04-11T20:15:37.040Z,59.10
2019-04-11T20:17:58.982Z,59.30
2019-04-11T20:20:26.023Z,59.40
2019-04-11T20:22:59.014Z,59.40
2019-04-11T20:25:21.914Z,60.30
2019-04-11T20:27:50.778Z,59.60
2019-04-11T20:30:17.693Z,59.60
2019-04-11T20:32:44.030Z,59.70
2019-04-11T20:35:10.878Z,59.80
2019-04-11T20:37:39.348Z,59.70
2019-04-11T20:40:05.601Z,60.30
2019-04-11T20:42:31.909Z,60.30
2019-04-11T20:44:59.080Z,60.10
2019-04-11T20:47:25.515Z,59.90
2019-04-11T20:49:51.875Z,60.30
2019-04-11T20:52:18.211Z,60.20
2019-04-11T20:54:45.341Z,59.70
2019-04-11T20:57:12.669Z,59.80
2019-04-11T20:59:42.299Z,59.40
2019-04-11T21:02:07.391Z,59.50
2019-04-11T21:04:33.649Z,59.20
2019-04-11T21:07:02.111Z,59.50
2019-04-11T21:09:28.043Z,59.70
2019-04-11T21:11:54.280Z,59.90
2019-04-11T21:14:20.508Z,59.60
2019-04-11T21:16:46.765Z,59.40
2019-04-11T21:19:13.115Z,60.00
2019-04-11T21:21:39.344Z,60.30
2019-04-11T21:24:05.587Z,60.00
2019-04-11T21:26:31.838Z,59.90
2019-04-11T21:28:58.970Z,61.10
2019-04-11T21:31:25.730Z,61.30
2019-04-11T21:33:51.987Z,61.00
2019-04-11T21:36:18.221Z,61.30
2019-04-11T21:38:44.618Z,61.00
2019-04-11T21:41:10.801Z,60.70
2019-04-11T21:43:37.027Z,60.70
2019-04-11T21:46:04.105Z,61.10
2019-04-11T21:48:31.402Z,61.60
2019-04-11T21:50:57.669Z,61.90
2019-04-11T21:53:35.810Z,61.10
2019-04-11T21:55:52.047Z,61.30
2019-04-11T21:58:20.133Z,61.30
2019-04-11T22:00:54.430Z,61.80
2019-04-11T22:03:23.988Z,60.90
2019-04-11T22:05:49.059Z,60.60
2019-04-11T22:08:15.431Z,60.90
2019-04-11T22:10:42.065Z,60.30
2019-04-11T22:13:10.146Z,61.40
2019-04-11T22:15:36.781Z,61.80
2019-04-11T22:18:03.131Z,61.10
2019-04-11T22:20:29.360Z,61.10
2019-04-11T22:22:55.595Z,61.50
2019-04-11T22:25:21.855Z,61.00
2019-04-11T22:27:53.897Z,61.20
2019-04-11T22:30:20.123Z,61.10
2019-04-11T22:32:48.252Z,61.40
2019-04-11T22:35:14.477Z,61.60
2019-04-11T22:37:40.717Z,61.50
2019-04-11T22:40:07.440Z,62.20
2019-04-11T22:42:33.719Z,62.70
2019-04-11T22:44:59.948Z,62.40
2019-04-11T22:47:26.196Z,62.20
2019-04-11T22:49:52.435Z,62.20
2019-04-11T22:52:18.660Z,62.20
2019-04-11T22:54:44.878Z,62.40
2019-04-11T22:57:12.144Z,63.00
2019-04-11T22:59:43.974Z,62.90
2019-04-11T23:02:16.888Z,63.60
2019-04-11T23:04:40.969Z,63.50
2019-04-11T23:07:07.331Z,63.80
2019-04-11T23:09:33.545Z,64.70
2019-04-11T23:11:59.789Z,65.10
2019-04-11T23:14:26.038Z,64.70
2019-04-11T23:16:52.295Z,65.20
2019-04-11T23:19:18.514Z,65.10
2019-04-11T23:21:44.741Z,65.50
2019-04-11T23:24:12.153Z,65.80
2019-04-11T23:26:38.709Z,66.30
2019-04-11T23:29:05.220Z,66.70
2019-04-11T23:31:31.469Z,67.40
2019-04-11T23:33:57.735Z,67.00
2019-04-11T23:36:27.807Z,67.10
2019-04-11T23:38:54.026Z,67.20
2019-04-11T23:41:20.585Z,67.70
2019-04-11T23:43:49.765Z,68.20
2019-04-11T23:46:15.218Z,68.10
2019-04-11T23:48:41.823Z,67.80
2019-04-11T23:51:09.669Z,67.90
2019-04-11T23:53:35.887Z,67.60
2019-04-11T23:56:02.230Z,68.30
2019-04-11T23:58:31.828Z,67.70
